Time;durP1;ratioP1;P1;durP2;ratioP2;P2;SDS_P1;SDS_P2;PMS_P1;PMS_P2;Temp;Humidity;BMP_temperature;BMP_pressure;BME280_temperature;BME280_humidity;BME280_pressure;Samples;Min_cycle;Max_cycle;Signal;HPM_P1;HPM_P2
2021/07/22 00:00:50;;;;;;;;;;;16.00;83.20;;;;;;4997259;28;20320;-59
2021/07/22 00:03:16;;;;;;;;;;;15.90;83.10;;;;;;5030805;28;19943;-60
2021/07/22 00:05:41;;;;;;;;;;;16.00;83.20;;;;;;5031163;28;19920;-60
2021/07/22 00:08:11;;;;;;;;;;;16.00;83.20;;;;;;5030993;28;19963;-59
2021/07/22 00:10:37;;;;;;;;;;;16.00;83.20;;;;;;5030794;28;20458;-59
2021/07/22 00:13:03;;;;;;;;;;;16.00;83.20;;;;;;5031123;28;19924;-59
2021/07/22 00:15:28;;;;;;;;;;;16.00;83.10;;;;;;5034441;28;19999;-59
2021/07/22 00:17:54;;;;;;;;;;;16.00;83.20;;;;;;5034495;28;20039;-60
2021/07/22 00:20:20;;;;;;;;;;;16.00;83.30;;;;;;5034978;28;19921;-59
2021/07/22 00:22:45;;;;;;;;;;;16.00;83.20;;;;;;5034400;28;20147;-59
2021/07/22 00:25:11;;;;;;;;;;;16.00;83.30;;;;;;5017279;28;19913;-59
2021/07/22 00:27:36;;;;;;;;;;;16.10;83.40;;;;;;5034565;28;19924;-59
2021/07/22 00:30:02;;;;;;;;;;;16.10;83.40;;;;;;5016627;28;19917;-59
2021/07/22 00:32:28;;;;;;;;;;;16.10;83.50;;;;;;5017049;28;19918;-59
2021/07/22 00:37:44;;;;;;;;;;;16.20;83.50;;;;;;4954133;29;19933;-58
2021/07/22 00:40:10;;;;;;;;;;;16.20;83.40;;;;;;4939355;29;19977;-58
2021/07/22 00:42:55;;;;;;;;;;;16.20;83.30;;;;;;4955994;29;20378;-58
2021/07/22 00:45:20;;;;;;;;;;;16.20;83.20;;;;;;4939054;29;20472;-58
2021/07/22 00:47:46;;;;;;;;;;;16.10;83.20;;;;;;4955697;29;20005;-58
2021/07/22 00:50:12;;;;;;;;;;;16.10;83.20;;;;;;4939122;29;19997;-58
2021/07/22 00:52:39;;;;;;;;;;;16.10;83.20;;;;;;4939013;29;20279;-58
2021/07/22 00:55:05;;;;;;;;;;;16.10;83.10;;;;;;4938519;29;19968;-58
2021/07/22 00:57:31;;;;;;;;;;;16.00;83.10;;;;;;4938645;29;20417;-58
2021/07/22 00:59:56;;;;;;;;;;;16.00;83.10;;;;;;4938515;29;19922;-58
2021/07/22 01:02:22;;;;;;;;;;;16.00;83.20;;;;;;4939033;29;19934;-58
2021/07/22 01:04:48;;;;;;;;;;;15.90;83.20;;;;;;4956163;29;19919;-58
2021/07/22 01:07:15;;;;;;;;;;;15.90;83.20;;;;;;4955228;29;19919;-58
2021/07/22 01:09:41;;;;;;;;;;;15.90;83.10;;;;;;4938752;29;20390;-57
2021/07/22 01:12:07;;;;;;;;;;;15.80;83.10;;;;;;4938865;29;20021;-58
2021/07/22 01:14:33;;;;;;;;;;;15.70;83.30;;;;;;4955394;29;19962;-58
2021/07/22 01:17:08;;;;;;;;;;;15.80;83.50;;;;;;4938284;29;19966;-58
2021/07/22 01:19:33;;;;;;;;;;;15.80;83.50;;;;;;4922345;29;20001;-58
2021/07/22 01:22:00;;;;;;;;;;;15.80;83.50;;;;;;4938521;29;19922;-58
2021/07/22 01:24:28;;;;;;;;;;;15.80;83.40;;;;;;4938430;29;19918;-58
2021/07/22 01:27:00;;;;;;;;;;;15.70;83.30;;;;;;4937103;29;19925;-58
2021/07/22 01:29:41;;;;;;;;;;;15.70;83.30;;;;;;4938081;29;19930;-59
2021/07/22 01:32:07;;;;;;;;;;;15.60;83.40;;;;;;4955582;29;20216;-58
2021/07/22 01:34:34;;;;;;;;;;;15.60;83.50;;;;;;4955370;29;20002;-58
2021/07/22 01:37:00;;;;;;;;;;;15.60;83.30;;;;;;4970485;28;20001;-58
2021/07/22 01:39:26;;;;;;;;;;;15.60;83.30;;;;;;4957370;28;20002;-58
2021/07/22 01:41:52;;;;;;;;;;;15.50;83.40;;;;;;4973433;28;19957;-58
2021/07/22 01:44:18;;;;;;;;;;;15.50;83.80;;;;;;4972811;28;20306;-58
2021/07/22 01:46:44;;;;;;;;;;;15.50;83.90;;;;;;4957083;28;19957;-58
2021/07/22 01:49:10;;;;;;;;;;;15.50;83.90;;;;;;4972836;28;19918;-58
2021/07/22 01:51:36;;;;;;;;;;;15.50;83.90;;;;;;4974467;28;19947;-58
2021/07/22 01:54:06;;;;;;;;;;;15.50;84.10;;;;;;4973125;28;19968;-58
2021/07/22 01:56:31;;;;;;;;;;;15.60;84.10;;;;;;4956490;28;19914;-58
2021/07/22 01:58:57;;;;;;;;;;;15.60;84.10;;;;;;4972719;28;19922;-58
2021/07/22 02:01:25;;;;;;;;;;;15.60;84.10;;;;;;4972566;28;19918;-59
2021/07/22 02:03:58;;;;;;;;;;;15.60;84.10;;;;;;4956979;28;20445;-58
2021/07/22 02:06:23;;;;;;;;;;;15.60;84.10;;;;;;4972972;28;19954;-58
2021/07/22 02:08:53;;;;;;;;;;;15.60;83.90;;;;;;4973463;28;19918;-58
2021/07/22 02:11:19;;;;;;;;;;;15.60;83.90;;;;;;4974094;28;20393;-58
2021/07/22 02:13:46;;;;;;;;;;;15.60;83.90;;;;;;4972312;28;19918;-59
2021/07/22 02:16:11;;;;;;;;;;;15.50;84.00;;;;;;4973980;28;19921;-58
2021/07/22 02:18:37;;;;;;;;;;;15.50;84.00;;;;;;4940515;28;20370;-57
2021/07/22 02:21:11;;;;;;;;;;;15.40;83.90;;;;;;4972416;28;19919;-58
2021/07/22 02:23:47;;;;;;;;;;;15.40;83.80;;;;;;4973887;28;19922;-58
2021/07/22 02:26:18;;;;;;;;;;;15.30;83.80;;;;;;4973191;28;19994;-58
2021/07/22 02:28:44;;;;;;;;;;;15.20;83.80;;;;;;4972201;28;19939;-58
2021/07/22 02:31:10;;;;;;;;;;;15.20;83.90;;;;;;4973266;28;19925;-58
2021/07/22 02:33:36;;;;;;;;;;;15.10;83.80;;;;;;4973707;28;19922;-58
2021/07/22 02:36:03;;;;;;;;;;;15.00;84.00;;;;;;4973457;28;19929;-58
2021/07/22 02:38:47;;;;;;;;;;;14.90;84.10;;;;;;4972790;28;20341;-58
2021/07/22 02:41:13;;;;;;;;;;;14.80;84.20;;;;;;4973507;28;19918;-57
2021/07/22 02:43:42;;;;;;;;;;;14.70;84.40;;;;;;4971806;28;19965;-59
2021/07/22 02:46:09;;;;;;;;;;;14.70;84.50;;;;;;4972177;28;19922;-58
2021/07/22 02:48:40;;;;;;;;;;;14.60;84.50;;;;;;4971452;28;19925;-58
2021/07/22 02:51:08;;;;;;;;;;;14.50;84.60;;;;;;4956127;28;20004;-57
2021/07/22 02:53:34;;;;;;;;;;;14.50;84.80;;;;;;4972109;28;19973;-58
2021/07/22 02:56:21;;;;;;;;;;;14.40;84.90;;;;;;4955769;28;19957;-58
2021/07/22 02:58:48;;;;;;;;;;;14.30;85.00;;;;;;4971709;28;19933;-58
2021/07/22 03:01:15;;;;;;;;;;;14.30;85.10;;;;;;4955465;28;19921;-58
2021/07/22 03:03:41;;;;;;;;;;;14.20;85.30;;;;;;4973170;28;19918;-58
2021/07/22 03:06:13;;;;;;;;;;;14.20;85.50;;;;;;4956207;28;19922;-58
2021/07/22 03:08:39;;;;;;;;;;;14.10;85.60;;;;;;4955160;28;19926;-57
2021/07/22 03:11:08;;;;;;;;;;;14.10;85.70;;;;;;4971942;28;19919;-57
2021/07/22 03:13:35;;;;;;;;;;;14.00;85.70;;;;;;4972457;28;19919;-58
2021/07/22 03:16:02;;;;;;;;;;;13.90;85.80;;;;;;4971735;28;19941;-57
2021/07/22 03:18:50;;;;;;;;;;;13.90;86.00;;;;;;4971983;28;19926;-58
2021/07/22 03:21:16;;;;;;;;;;;13.90;86.30;;;;;;4973035;28;19918;-58
2021/07/22 03:23:50;;;;;;;;;;;13.80;86.90;;;;;;4971180;28;20282;-58
2021/07/22 03:26:16;;;;;;;;;;;13.80;86.60;;;;;;4972920;28;19925;-58
2021/07/22 03:28:45;;;;;;;;;;;13.80;86.80;;;;;;4954713;28;20012;-58
2021/07/22 03:31:26;;;;;;;;;;;13.80;86.90;;;;;;4955496;28;19919;-57
2021/07/22 03:34:07;;;;;;;;;;;13.80;87.40;;;;;;4972502;28;20374;-58
2021/07/22 03:36:38;;;;;;;;;;;13.90;87.90;;;;;;4949680;28;19933;-58
2021/07/22 03:39:12;;;;;;;;;;;14.00;88.20;;;;;;4970929;28;20306;-58
2021/07/22 03:41:57;;;;;;;;;;;14.10;88.30;;;;;;4972958;28;20390;-62
2021/07/22 03:44:35;;;;;;;;;;;14.30;88.30;;;;;;4987461;28;19918;-62
2021/07/22 03:47:02;;;;;;;;;;;14.40;88.30;;;;;;4970976;28;19925;-62
2021/07/22 03:49:28;;;;;;;;;;;14.50;88.20;;;;;;4972698;28;19950;-62
2021/07/22 03:51:57;;;;;;;;;;;14.50;88.10;;;;;;4975393;28;19934;-57
2021/07/22 03:54:30;;;;;;;;;;;14.60;88.20;;;;;;4975094;28;20050;-58
2021/07/22 03:56:57;;;;;;;;;;;14.60;88.10;;;;;;4975076;28;19925;-58
2021/07/22 03:59:24;;;;;;;;;;;14.70;88.10;;;;;;4975397;28;19973;-58
2021/07/22 04:01:54;;;;;;;;;;;14.80;88.20;;;;;;4974835;28;20276;-58
2021/07/22 04:04:27;;;;;;;;;;;14.80;88.10;;;;;;4975231;28;19925;-58
2021/07/22 04:06:53;;;;;;;;;;;14.90;88.10;;;;;;4974445;28;19996;-58
2021/07/22 04:09:38;;;;;;;;;;;15.00;88.10;;;;;;4976510;28;20294;-58
2021/07/22 04:12:42;;;;;;;;;;;15.00;88.10;;;;;;4958354;28;20024;-58
2021/07/22 04:15:27;;;;;;;;;;;15.00;88.10;;;;;;4975852;28;20288;-59
2021/07/22 04:18:15;;;;;;;;;;;15.10;88.10;;;;;;4970529;28;19918;-58
2021/07/22 04:21:07;;;;;;;;;;;15.10;88.10;;;;;;4974762;28;19977;-58
2021/07/22 04:23:53;;;;;;;;;;;15.20;88.20;;;;;;4964633;28;19926;-62
2021/07/22 04:26:31;;;;;;;;;;;15.30;88.20;;;;;;4974740;28;19918;-63
2021/07/22 04:29:19;;;;;;;;;;;15.30;88.20;;;;;;4972556;28;19930;-63
2021/07/22 04:31:46;;;;;;;;;;;15.50;88.20;;;;;;4974614;28;19918;-63
2021/07/22 04:34:38;;;;;;;;;;;15.50;88.10;;;;;;4975812;28;19919;-63
2021/07/22 04:37:11;;;;;;;;;;;15.60;88.00;;;;;;4974339;28;19922;-63
2021/07/22 04:40:03;;;;;;;;;;;15.70;88.00;;;;;;4975401;28;20590;-63
2021/07/22 04:42:49;;;;;;;;;;;15.70;88.00;;;;;;4954558;28;19924;-62
2021/07/22 04:45:35;;;;;;;;;;;15.80;88.00;;;;;;4964711;28;19918;-63
2021/07/22 04:48:14;;;;;;;;;;;15.90;88.00;;;;;;4975287;28;19953;-63
2021/07/22 04:50:43;;;;;;;;;;;15.90;87.90;;;;;;4975667;28;19989;-63
2021/07/22 04:53:37;;;;;;;;;;;16.00;87.80;;;;;;4970536;28;19973;-62
2021/07/22 04:56:05;;;;;;;;;;;16.10;87.70;;;;;;4974140;28;19925;-63
2021/07/22 04:58:34;;;;;;;;;;;16.20;87.60;;;;;;4957778;28;20390;-63
2021/07/22 05:01:03;;;;;;;;;;;16.20;87.50;;;;;;4972855;28;20001;-63
2021/07/22 05:03:29;;;;;;;;;;;16.30;87.50;;;;;;4973956;28;20045;-62
2021/07/22 05:05:56;;;;;;;;;;;16.30;87.40;;;;;;4974030;28;20089;-63
2021/07/22 05:08:41;;;;;;;;;;;16.40;87.40;;;;;;4974776;28;19965;-62
2021/07/22 05:11:18;;;;;;;;;;;16.50;87.30;;;;;;4973957;28;19918;-63
2021/07/22 05:14:04;;;;;;;;;;;16.60;87.20;;;;;;4974547;28;19925;-63
2021/07/22 05:16:44;;;;;;;;;;;16.60;87.00;;;;;;4973216;28;19918;-63
2021/07/22 05:19:38;;;;;;;;;;;16.70;86.90;;;;;;4970216;28;19929;-63
2021/07/22 05:22:42;;;;;;;;;;;16.80;86.80;;;;;;4895888;29;19935;-62
2021/07/22 05:25:28;;;;;;;;;;;16.90;86.60;;;;;;4895562;29;19959;-63
2021/07/22 05:28:07;;;;;;;;;;;16.90;86.30;;;;;;4950034;28;19925;-63
2021/07/22 05:31:10;;;;;;;;;;;17.00;86.00;;;;;;4973294;28;20378;-65
2021/07/22 05:34:08;;;;;;;;;;;17.00;85.80;;;;;;4969877;28;19924;-64
2021/07/22 05:36:55;;;;;;;;;;;17.00;85.60;;;;;;4972286;28;19926;-63
2021/07/22 05:39:26;;;;;;;;;;;17.10;85.20;;;;;;4973602;28;19964;-63
2021/07/22 05:41:52;;;;;;;;;;;17.10;84.90;;;;;;4974703;28;20377;-63
2021/07/22 05:44:17;;;;;;;;;;;17.10;84.60;;;;;;4974046;28;20445;-63
2021/07/22 05:46:43;;;;;;;;;;;17.20;84.20;;;;;;4974228;28;20382;-64
2021/07/22 05:49:10;;;;;;;;;;;17.30;84.30;;;;;;4972869;28;20371;-63
2021/07/22 05:51:36;;;;;;;;;;;17.30;84.10;;;;;;4974613;28;19925;-63
2021/07/22 05:54:01;;;;;;;;;;;17.40;83.60;;;;;;4973154;28;19918;-63
2021/07/22 05:56:27;;;;;;;;;;;17.40;83.20;;;;;;4956583;28;19918;-63
2021/07/22 05:58:54;;;;;;;;;;;17.50;83.00;;;;;;4972742;28;19922;-64
2021/07/22 06:01:19;;;;;;;;;;;17.50;82.50;;;;;;4974336;28;19918;-63
2021/07/22 06:03:45;;;;;;;;;;;17.50;82.30;;;;;;4972547;28;19918;-63
2021/07/22 06:06:11;;;;;;;;;;;17.60;81.70;;;;;;4972825;28;19918;-63
2021/07/22 06:08:37;;;;;;;;;;;17.60;81.20;;;;;;4973633;28;20390;-63
2021/07/22 06:11:06;;;;;;;;;;;17.60;80.90;;;;;;4974183;28;19925;-63
2021/07/22 06:13:33;;;;;;;;;;;17.70;80.30;;;;;;4973749;28;20306;-63
2021/07/22 06:16:00;;;;;;;;;;;17.70;79.90;;;;;;4972329;28;19930;-63
2021/07/22 06:18:26;;;;;;;;;;;17.70;79.80;;;;;;4973719;28;19918;-63
2021/07/22 06:20:53;;;;;;;;;;;17.80;80.00;;;;;;4972607;28;19922;-63
2021/07/22 06:23:18;;;;;;;;;;;17.90;79.50;;;;;;4973626;28;20009;-63
2021/07/22 06:25:44;;;;;;;;;;;18.00;79.10;;;;;;4974019;28;19926;-63
2021/07/22 06:28:09;;;;;;;;;;;18.10;79.00;;;;;;4973179;28;20393;-63
2021/07/22 06:30:35;;;;;;;;;;;18.20;78.50;;;;;;4973855;28;20386;-63
2021/07/22 06:33:01;;;;;;;;;;;18.40;78.40;;;;;;4973848;28;19918;-63
2021/07/22 06:38:28;;;;;;;;;;;18.60;77.70;;;;;;4951539;28;19934;-65
2021/07/22 06:40:54;;;;;;;;;;;18.80;77.30;;;;;;4954133;28;19923;-65
2021/07/22 06:43:20;;;;;;;;;;;19.00;77.00;;;;;;4954235;28;20303;-65
2021/07/22 06:45:45;;;;;;;;;;;19.10;76.30;;;;;;4953547;28;19919;-65
2021/07/22 06:48:11;;;;;;;;;;;19.20;75.90;;;;;;4936566;29;20028;-65
2021/07/22 06:50:37;;;;;;;;;;;19.40;75.40;;;;;;4952358;29;19914;-65
2021/07/22 06:53:03;;;;;;;;;;;19.50;74.90;;;;;;4953881;29;19925;-64
2021/07/22 06:55:29;;;;;;;;;;;19.70;74.70;;;;;;4953952;29;19961;-65
2021/07/22 06:57:55;;;;;;;;;;;20.00;74.10;;;;;;4953065;29;19956;-64
2021/07/22 07:00:20;;;;;;;;;;;20.20;73.80;;;;;;4953749;29;20317;-65
2021/07/22 07:02:46;;;;;;;;;;;20.40;73.00;;;;;;4953756;29;19945;-66
2021/07/22 07:05:12;;;;;;;;;;;20.70;72.10;;;;;;4953211;29;19957;-65
2021/07/22 07:07:37;;;;;;;;;;;20.90;71.30;;;;;;4953273;29;19919;-65
2021/07/22 07:10:03;;;;;;;;;;;21.10;71.00;;;;;;4953237;29;20337;-65
2021/07/22 07:12:28;;;;;;;;;;;21.30;70.40;;;;;;4953561;29;19919;-64
2021/07/22 07:14:54;;;;;;;;;;;21.50;69.50;;;;;;4953634;29;19919;-65
2021/07/22 07:17:20;;;;;;;;;;;21.80;68.50;;;;;;4935933;29;19930;-65
2021/07/22 07:19:45;;;;;;;;;;;21.80;66.80;;;;;;4953602;29;19926;-66
2021/07/22 07:22:11;;;;;;;;;;;21.70;65.70;;;;;;4953590;29;19918;-65
2021/07/22 07:24:36;;;;;;;;;;;21.60;65.50;;;;;;4952578;28;20341;-65
2021/07/22 07:27:04;;;;;;;;;;;21.70;65.80;;;;;;4953146;29;19929;-65
2021/07/22 07:29:30;;;;;;;;;;;21.80;64.90;;;;;;4953034;29;20000;-65
2021/07/22 07:31:59;;;;;;;;;;;22.00;65.10;;;;;;4953659;29;20339;-65
2021/07/22 07:34:25;;;;;;;;;;;22.30;64.70;;;;;;4952025;29;19918;-65
2021/07/22 07:36:50;;;;;;;;;;;22.80;64.90;;;;;;4952339;29;19956;-64
2021/07/22 07:39:16;;;;;;;;;;;23.70;65.20;;;;;;4952216;29;19933;-65
2021/07/22 07:41:42;;;;;;;;;;;24.20;63.20;;;;;;4953168;29;19919;-65
2021/07/22 07:44:08;;;;;;;;;;;24.40;61.10;;;;;;4953563;29;19998;-65
2021/07/22 07:46:33;;;;;;;;;;;24.60;60.00;;;;;;4953697;29;20381;-65
2021/07/22 07:48:59;;;;;;;;;;;24.70;58.50;;;;;;4953344;29;19923;-66
2021/07/22 07:51:24;;;;;;;;;;;24.80;58.70;;;;;;4936059;29;19923;-65
2021/07/22 07:53:50;;;;;;;;;;;25.10;58.10;;;;;;4953239;29;19918;-65
2021/07/22 07:56:16;;;;;;;;;;;25.50;57.40;;;;;;4952933;29;19925;-65
2021/07/22 07:58:41;;;;;;;;;;;26.00;57.40;;;;;;4953139;29;19984;-65
2021/07/22 08:01:07;;;;;;;;;;;26.30;55.90;;;;;;4935691;29;20461;-64
2021/07/22 08:03:32;;;;;;;;;;;26.30;53.60;;;;;;4953942;29;20302;-61
2021/07/22 08:05:58;;;;;;;;;;;26.10;53.40;;;;;;4935951;29;19925;-60
2021/07/22 08:08:23;;;;;;;;;;;25.90;52.10;;;;;;4952655;29;19915;-62
2021/07/22 08:10:49;;;;;;;;;;;25.70;51.10;;;;;;4951860;29;19987;-61
2021/07/22 08:13:14;;;;;;;;;;;25.30;50.90;;;;;;4953151;29;19915;-62
2021/07/22 08:15:41;;;;;;;;;;;25.10;51.40;;;;;;4952588;29;19925;-62
2021/07/22 08:18:06;;;;;;;;;;;25.60;53.10;;;;;;4935727;29;20326;-62
2021/07/22 08:20:32;;;;;;;;;;;27.00;55.10;;;;;;4952923;29;19922;-62
2021/07/22 08:22:58;;;;;;;;;;;28.60;53.70;;;;;;4952732;29;19919;-62
2021/07/22 08:25:23;;;;;;;;;;;29.10;49.10;;;;;;4953129;29;19973;-62
2021/07/22 08:27:49;;;;;;;;;;;28.70;46.20;;;;;;4952271;29;20009;-61
2021/07/22 08:30:15;;;;;;;;;;;27.70;45.20;;;;;;4952954;29;19941;-61
2021/07/22 08:32:40;;;;;;;;;;;26.70;45.20;;;;;;4953126;29;19949;-62
2021/07/22 08:35:06;;;;;;;;;;;25.90;46.10;;;;;;4952325;28;19933;-63
2021/07/22 08:37:31;;;;;;;;;;;25.40;46.50;;;;;;4956173;29;19968;-61
2021/07/22 08:40:01;;;;;;;;;;;25.10;46.80;;;;;;4956442;29;20009;-61
2021/07/22 08:42:27;;;;;;;;;;;25.10;47.80;;;;;;4938645;29;19928;-61
2021/07/22 08:44:53;;;;;;;;;;;25.20;47.90;;;;;;4956351;29;20338;-62
2021/07/22 08:47:18;;;;;;;;;;;25.30;47.40;;;;;;4954585;29;19919;-61
2021/07/22 08:49:44;;;;;;;;;;;25.30;47.20;;;;;;4956206;29;19918;-62
2021/07/22 08:52:10;;;;;;;;;;;25.40;47.10;;;;;;4956212;29;19915;-61
2021/07/22 08:54:36;;;;;;;;;;;25.80;48.10;;;;;;4955911;29;19969;-61
2021/07/22 08:57:04;;;;;;;;;;;26.60;48.20;;;;;;4955909;29;19970;-62
2021/07/22 08:59:31;;;;;;;;;;;26.90;45.90;;;;;;4956104;29;19950;-62
2021/07/22 09:01:58;;;;;;;;;;;26.80;44.80;;;;;;4952545;29;20442;-62
2021/07/22 09:04:23;;;;;;;;;;;26.40;45.00;;;;;;4936831;29;19918;-62
2021/07/22 09:06:49;;;;;;;;;;;26.50;46.20;;;;;;4936277;29;19985;-62
2021/07/22 09:09:16;;;;;;;;;;;26.90;46.10;;;;;;4936942;29;19926;-62
2021/07/22 09:12:00;;;;;;;;;;;26.80;45.10;;;;;;4936850;29;19925;-61
2021/07/22 09:14:27;;;;;;;;;;;26.60;44.50;;;;;;4936423;29;19926;-62
2021/07/22 09:16:52;;;;;;;;;;;26.80;45.20;;;;;;4936404;29;19919;-61
2021/07/22 09:19:35;;;;;;;;;;;28.40;48.20;;;;;;4936167;29;19919;-62
2021/07/22 09:22:01;;;;;;;;;;;29.80;45.00;;;;;;4936761;29;20448;-61
2021/07/22 09:24:26;;;;;;;;;;;29.50;41.90;;;;;;4936248;29;20315;-62
2021/07/22 09:26:53;;;;;;;;;;;28.80;41.30;;;;;;4936220;29;19919;-61
2021/07/22 09:29:19;;;;;;;;;;;27.80;40.40;;;;;;4936481;29;20060;-61
2021/07/22 09:31:47;;;;;;;;;;;27.00;41.60;;;;;;4936003;29;20481;-61
2021/07/22 09:34:18;;;;;;;;;;;26.60;41.80;;;;;;4936258;29;19925;-61
2021/07/22 09:36:44;;;;;;;;;;;26.30;42.60;;;;;;4944266;29;19923;-62
2021/07/22 09:39:23;;;;;;;;;;;26.20;42.80;;;;;;4955447;29;19922;-61
2021/07/22 09:41:59;;;;;;;;;;;26.10;42.40;;;;;;4937507;29;19923;-62
2021/07/22 09:44:35;;;;;;;;;;;25.80;42.20;;;;;;4955361;29;19941;-61
2021/07/22 09:47:02;;;;;;;;;;;25.70;43.20;;;;;;4953862;28;19978;-61
2021/07/22 09:49:31;;;;;;;;;;;25.80;43.70;;;;;;4955232;29;19918;-60
2021/07/22 09:52:02;;;;;;;;;;;25.70;42.70;;;;;;4955113;29;19926;-61
2021/07/22 09:54:34;;;;;;;;;;;25.40;42.60;;;;;;4937560;29;19952;-62
2021/07/22 09:57:02;;;;;;;;;;;25.30;43.60;;;;;;4954533;29;20050;-61
2021/07/22 09:59:27;;;;;;;;;;;25.40;43.70;;;;;;4954521;29;20028;-62
2021/07/22 10:01:56;;;;;;;;;;;25.40;43.90;;;;;;4954974;29;20399;-61
2021/07/22 10:04:22;;;;;;;;;;;25.40;43.70;;;;;;4954494;29;19919;-61
2021/07/22 10:06:48;;;;;;;;;;;25.40;44.00;;;;;;4954602;29;20244;-61
2021/07/22 10:09:16;;;;;;;;;;;25.60;43.90;;;;;;4954775;29;19914;-62
2021/07/22 10:11:42;;;;;;;;;;;25.50;43.60;;;;;;4954591;29;19919;-61
2021/07/22 10:14:09;;;;;;;;;;;25.30;43.20;;;;;;4954675;29;19919;-62
2021/07/22 10:16:35;;;;;;;;;;;25.00;43.20;;;;;;4955006;29;19929;-61
2021/07/22 10:19:01;;;;;;;;;;;24.90;43.90;;;;;;4954778;29;20014;-61
2021/07/22 10:21:27;;;;;;;;;;;25.10;44.60;;;;;;4954967;29;19922;-62
2021/07/22 10:23:53;;;;;;;;;;;25.40;45.10;;;;;;4955459;29;19919;-61
2021/07/22 10:26:21;;;;;;;;;;;25.60;43.90;;;;;;4937462;29;19919;-62
2021/07/22 10:28:46;;;;;;;;;;;25.50;43.40;;;;;;4954354;29;19919;-60
2021/07/22 10:31:13;;;;;;;;;;;25.30;43.50;;;;;;4954013;29;19924;-62
2021/07/22 10:33:39;;;;;;;;;;;25.80;45.40;;;;;;4954816;29;20302;-62
2021/07/22 10:36:06;;;;;;;;;;;28.60;47.10;;;;;;4954017;29;20379;-62
2021/07/22 10:38:45;;;;;;;;;;;31.80;46.00;;;;;;4954129;29;19935;-61
2021/07/22 10:41:37;;;;;;;;;;;32.20;41.40;;;;;;4954376;29;20005;-62
2021/07/22 10:44:06;;;;;;;;;;;31.30;38.70;;;;;;4950957;29;19919;-61
2021/07/22 10:46:52;;;;;;;;;;;30.70;39.00;;;;;;4936701;29;19918;-61
2021/07/22 10:49:18;;;;;;;;;;;30.50;38.00;;;;;;4954074;29;20303;-62
2021/07/22 10:51:45;;;;;;;;;;;29.90;37.80;;;;;;4954285;29;19946;-61
2021/07/22 10:54:30;;;;;;;;;;;29.90;38.40;;;;;;4953739;29;20437;-62
2021/07/22 10:56:56;;;;;;;;;;;29.80;38.10;;;;;;4952406;29;20356;-62
2021/07/22 10:59:41;;;;;;;;;;;29.50;37.40;;;;;;4953349;28;19962;-62
2021/07/22 11:02:07;;;;;;;;;;;29.10;37.70;;;;;;4953845;29;19922;-62
2021/07/22 11:04:35;;;;;;;;;;;30.30;39.90;;;;;;4953332;29;19918;-61
2021/07/22 11:07:02;;;;;;;;;;;32.70;39.70;;;;;;4953652;29;19925;-63
2021/07/22 11:09:40;;;;;;;;;;;33.90;37.60;;;;;;4953788;29;19930;-61
2021/07/22 11:12:05;;;;;;;;;;;34.40;35.70;;;;;;4953530;29;20005;-61
2021/07/22 11:14:31;;;;;;;;;;;34.00;33.50;;;;;;4953744;29;20017;-62
2021/07/22 11:16:58;;;;;;;;;;;33.40;34.30;;;;;;4952833;29;19923;-61
2021/07/22 11:19:23;;;;;;;;;;;32.90;33.00;;;;;;4953769;29;19929;-63
2021/07/22 11:21:50;;;;;;;;;;;31.90;32.90;;;;;;4953535;29;20318;-61
2021/07/22 11:24:20;;;;;;;;;;;30.90;33.20;;;;;;4953411;29;22796;-63
2021/07/22 11:26:50;;;;;;;;;;;31.10;35.40;;;;;;4953422;29;19924;-63
2021/07/22 11:29:16;;;;;;;;;;;32.00;35.30;;;;;;4953238;29;19914;-63
2021/07/22 11:31:46;;;;;;;;;;;32.10;33.70;;;;;;4953578;29;20311;-61
2021/07/22 11:34:12;;;;;;;;;;;31.50;33.20;;;;;;4953087;29;20063;-62
2021/07/22 11:36:38;;;;;;;;;;;30.90;33.10;;;;;;4953132;29;19926;-61
2021/07/22 11:39:04;;;;;;;;;;;30.20;33.50;;;;;;4953456;29;19923;-62
2021/07/22 11:41:30;;;;;;;;;;;29.80;34.30;;;;;;4953011;29;19918;-62
2021/07/22 11:43:56;;;;;;;;;;;30.30;35.50;;;;;;4956884;29;19961;-62
2021/07/22 11:46:37;;;;;;;;;;;30.90;33.90;;;;;;4954996;29;19918;-62
2021/07/22 11:49:15;;;;;;;;;;;30.70;33.90;;;;;;4953093;29;19985;-62
2021/07/22 11:51:42;;;;;;;;;;;30.40;33.80;;;;;;4953485;29;19919;-62
2021/07/22 11:54:08;;;;;;;;;;;30.10;34.30;;;;;;4952839;29;19914;-62
2021/07/22 11:56:34;;;;;;;;;;;30.00;35.10;;;;;;4953202;29;19919;-62
2021/07/22 11:59:04;;;;;;;;;;;29.90;34.20;;;;;;4952731;29;19940;-63
2021/07/22 12:01:31;;;;;;;;;;;29.50;34.30;;;;;;4936073;29;19973;-62
2021/07/22 12:03:56;;;;;;;;;;;28.80;34.20;;;;;;4953252;29;20005;-62
2021/07/22 12:06:23;;;;;;;;;;;28.30;34.80;;;;;;4952840;29;20001;-61
2021/07/22 12:09:00;;;;;;;;;;;27.90;35.70;;;;;;4952933;29;19922;-61
2021/07/22 12:11:26;;;;;;;;;;;27.90;35.80;;;;;;4955978;28;20382;-61
2021/07/22 12:13:52;;;;;;;;;;;27.70;35.90;;;;;;4939638;29;19975;-61
2021/07/22 12:16:25;;;;;;;;;;;27.90;37.10;;;;;;4956975;29;20278;-61
2021/07/22 12:18:54;;;;;;;;;;;28.50;36.80;;;;;;4956283;29;19930;-61
2021/07/22 12:21:20;;;;;;;;;;;29.30;36.20;;;;;;4956970;29;19926;-61
2021/07/22 12:23:45;;;;;;;;;;;29.80;36.30;;;;;;4956111;29;19918;-61
2021/07/22 12:26:15;;;;;;;;;;;30.00;34.80;;;;;;4956839;29;19986;-61
2021/07/22 12:28:41;;;;;;;;;;;29.70;34.10;;;;;;4956129;29;19919;-62
2021/07/22 12:31:18;;;;;;;;;;;29.60;34.20;;;;;;4939575;29;20480;-61
2021/07/22 12:33:55;;;;;;;;;;;29.70;34.60;;;;;;4956699;29;20375;-61
2021/07/22 12:36:21;;;;;;;;;;;29.40;33.90;;;;;;4974175;23;19958;-66
2021/07/22 12:39:06;;;;;;;;;;;28.80;34.20;;;;;;4994690;28;19957;-65
2021/07/22 12:41:32;;;;;;;;;;;28.00;34.70;;;;;;4994813;28;20457;-65
2021/07/22 12:43:57;;;;;;;;;;;27.50;36.50;;;;;;4995218;28;20000;-66
2021/07/22 12:46:23;;;;;;;;;;;27.30;36.30;;;;;;4994600;28;20382;-65
2021/07/22 12:48:49;;;;;;;;;;;27.30;36.90;;;;;;4994731;28;20285;-66
2021/07/22 12:51:16;;;;;;;;;;;27.00;36.40;;;;;;4995080;28;20017;-66
2021/07/22 12:53:42;;;;;;;;;;;26.90;37.20;;;;;;4994334;28;19925;-65
2021/07/22 12:56:08;;;;;;;;;;;26.70;37.50;;;;;;4994709;28;19918;-65
2021/07/22 12:58:37;;;;;;;;;;;26.60;37.90;;;;;;4977207;28;19922;-66
2021/07/22 13:01:02;;;;;;;;;;;26.30;37.80;;;;;;4994566;28;19926;-66
2021/07/22 13:03:29;;;;;;;;;;;26.10;38.40;;;;;;4994658;28;19925;-65
2021/07/22 13:05:54;;;;;;;;;;;26.20;38.90;;;;;;4994136;28;19929;-65
2021/07/22 13:08:20;;;;;;;;;;;26.40;38.90;;;;;;4994303;28;20294;-66
2021/07/22 13:10:45;;;;;;;;;;;26.60;38.40;;;;;;4994740;28;20028;-66
2021/07/22 13:13:11;;;;;;;;;;;26.60;38.30;;;;;;4994249;28;20376;-65
2021/07/22 13:15:36;;;;;;;;;;;26.60;38.80;;;;;;4994358;28;19918;-66
2021/07/22 13:18:02;;;;;;;;;;;26.40;38.30;;;;;;4994235;28;20004;-65
2021/07/22 13:20:28;;;;;;;;;;;26.00;38.30;;;;;;4993990;28;19922;-65
2021/07/22 13:22:53;;;;;;;;;;;25.60;38.60;;;;;;4993360;28;19917;-65
2021/07/22 13:25:19;;;;;;;;;;;25.20;39.00;;;;;;4977042;28;20321;-65
2021/07/22 13:27:44;;;;;;;;;;;24.80;39.50;;;;;;4993621;28;19918;-65
2021/07/22 13:30:11;;;;;;;;;;;24.60;39.90;;;;;;4994357;28;19918;-66
2021/07/22 13:32:37;;;;;;;;;;;24.30;40.20;;;;;;4993988;28;20149;-64
2021/07/22 13:35:03;;;;;;;;;;;24.20;40.90;;;;;;4994191;28;19918;-65
2021/07/22 13:37:28;;;;;;;;;;;24.00;41.30;;;;;;4993601;28;19926;-65
2021/07/22 13:39:54;;;;;;;;;;;23.90;42.00;;;;;;4993324;28;19965;-65
2021/07/22 13:42:19;;;;;;;;;;;23.90;42.30;;;;;;4994099;28;19929;-65
2021/07/22 13:44:45;;;;;;;;;;;23.90;42.20;;;;;;4994005;28;19924;-66
2021/07/22 13:47:10;;;;;;;;;;;23.70;42.30;;;;;;4993251;28;20004;-65
2021/07/22 13:49:36;;;;;;;;;;;23.60;42.90;;;;;;4993954;28;19925;-66
2021/07/22 13:52:02;;;;;;;;;;;23.50;43.10;;;;;;4993545;28;20263;-64
2021/07/22 13:54:27;;;;;;;;;;;23.50;43.30;;;;;;4994002;28;19922;-65
2021/07/22 13:56:53;;;;;;;;;;;23.50;43.60;;;;;;4993347;28;19957;-65
2021/07/22 13:59:19;;;;;;;;;;;23.60;43.80;;;;;;4993215;28;19944;-65
2021/07/22 14:01:44;;;;;;;;;;;23.50;43.60;;;;;;4993683;28;20390;-66
2021/07/22 14:04:10;;;;;;;;;;;23.50;43.80;;;;;;4993832;28;19918;-65
2021/07/22 14:06:35;;;;;;;;;;;23.50;44.00;;;;;;4975511;28;19972;-65
2021/07/22 14:09:01;;;;;;;;;;;23.70;43.90;;;;;;4976124;28;20345;-65
2021/07/22 14:11:26;;;;;;;;;;;23.80;43.70;;;;;;4993034;28;19924;-65
2021/07/22 14:13:52;;;;;;;;;;;23.90;43.50;;;;;;4993506;28;20012;-65
2021/07/22 14:16:17;;;;;;;;;;;23.80;43.20;;;;;;4993447;28;19918;-65
2021/07/22 14:18:43;;;;;;;;;;;23.50;43.50;;;;;;4975334;28;19972;-65
2021/07/22 14:21:08;;;;;;;;;;;23.40;43.90;;;;;;4993211;28;20302;-66
2021/07/22 14:23:34;;;;;;;;;;;23.50;44.10;;;;;;4993385;28;19917;-65
2021/07/22 14:26:00;;;;;;;;;;;23.60;43.90;;;;;;4975400;28;20186;-65
2021/07/22 14:28:25;;;;;;;;;;;23.60;44.00;;;;;;4993047;28;19925;-65
2021/07/22 14:30:51;;;;;;;;;;;23.70;44.50;;;;;;4992784;28;19914;-65
2021/07/22 14:33:16;;;;;;;;;;;23.80;44.20;;;;;;4992836;28;19925;-65